createdAt,value
2022-11-08T00:00:12.527Z,726.00
2022-11-08T00:00:42.513Z,725.00
2022-11-08T00:01:12.544Z,727.00
2022-11-08T00:01:42.607Z,726.00
2022-11-08T00:02:12.853Z,728.00
2022-11-08T00:02:42.915Z,728.00
2022-11-08T00:03:12.883Z,728.00
2022-11-08T00:03:42.803Z,727.00
2022-11-08T00:04:12.805Z,728.00
2022-11-08T00:04:42.822Z,727.00
2022-11-08T00:05:12.829Z,729.00
2022-11-08T00:05:42.826Z,731.00
2022-11-08T00:06:12.885Z,726.00
2022-11-08T00:06:42.894Z,731.00
2022-11-08T00:07:12.910Z,725.00
2022-11-08T00:07:42.908Z,724.00
2022-11-08T00:08:12.901Z,725.00
2022-11-08T00:08:42.900Z,722.00
2022-11-08T00:09:12.903Z,722.00
2022-11-08T00:09:42.905Z,723.00
2022-11-08T00:10:12.908Z,723.00
2022-11-08T00:10:42.909Z,724.00
2022-11-08T00:11:12.925Z,729.00
2022-11-08T00:11:42.930Z,726.00
2022-11-08T00:12:12.933Z,729.00
2022-11-08T00:12:42.957Z,728.00
2022-11-08T00:13:12.953Z,727.00
2022-11-08T00:13:42.951Z,727.00
2022-11-08T00:14:12.950Z,727.00
2022-11-08T00:14:42.952Z,728.00
2022-11-08T00:15:12.952Z,729.00
2022-11-08T00:15:43.046Z,716.00
2022-11-08T00:16:13.147Z,719.00
2022-11-08T00:16:43.234Z,721.00
2022-11-08T00:17:13.319Z,720.00
2022-11-08T00:17:43.405Z,720.00
2022-11-08T00:18:13.494Z,722.00
2022-11-08T00:18:43.575Z,721.00
2022-11-08T00:19:13.653Z,718.00
2022-11-08T00:19:43.737Z,719.00
2022-11-08T00:20:13.816Z,724.00
2022-11-08T00:20:43.900Z,722.00
2022-11-08T00:21:13.985Z,721.00
2022-11-08T00:21:44.064Z,723.00
2022-11-08T00:22:14.142Z,722.00
2022-11-08T00:22:44.237Z,722.00
2022-11-08T00:23:14.324Z,721.00
2022-11-08T00:23:44.407Z,717.00
2022-11-08T00:24:14.495Z,718.00
2022-11-08T00:24:44.574Z,719.00
2022-11-08T00:25:14.668Z,718.00
2022-11-08T00:25:44.671Z,717.00
2022-11-08T00:26:14.681Z,714.00
2022-11-08T00:26:44.681Z,717.00
2022-11-08T00:27:14.686Z,719.00
2022-11-08T00:27:44.712Z,723.00
2022-11-08T00:28:15.132Z,724.00
2022-11-08T00:28:44.760Z,722.00
2022-11-08T00:29:14.767Z,722.00
2022-11-08T00:29:44.779Z,720.00
2022-11-08T00:30:14.786Z,717.00
2022-11-08T00:30:44.802Z,715.00
2022-11-08T00:31:14.813Z,720.00
2022-11-08T00:31:44.820Z,719.00
2022-11-08T00:32:14.829Z,720.00
2022-11-08T00:32:44.846Z,719.00
2022-11-08T00:33:14.850Z,711.00
2022-11-08T00:33:44.851Z,715.00
2022-11-08T00:34:14.850Z,718.00
2022-11-08T00:34:44.866Z,717.00
2022-11-08T00:35:14.872Z,719.00
2022-11-08T00:35:44.872Z,716.00
2022-11-08T00:36:14.893Z,715.00
2022-11-08T00:36:44.893Z,721.00
2022-11-08T00:37:14.896Z,719.00
2022-11-08T00:37:44.902Z,723.00
2022-11-08T00:38:15.255Z,719.00
2022-11-08T00:38:44.968Z,719.00
2022-11-08T00:39:14.971Z,716.00
2022-11-08T00:39:44.977Z,717.00
2022-11-08T00:40:14.978Z,717.00
2022-11-08T00:40:44.994Z,718.00
2022-11-08T00:41:15.062Z,715.00
2022-11-08T00:41:45.062Z,718.00
2022-11-08T00:42:15.066Z,714.00
2022-11-08T00:42:45.078Z,713.00
2022-11-08T00:43:15.092Z,711.00
2022-11-08T00:43:45.109Z,718.00
2022-11-08T00:44:15.094Z,712.00
2022-11-08T00:44:45.094Z,707.00
2022-11-08T00:45:15.116Z,710.00
2022-11-08T00:45:45.116Z,712.00
2022-11-08T00:46:15.143Z,712.00
2022-11-08T00:46:45.152Z,707.00
2022-11-08T00:47:15.152Z,710.00
2022-11-08T00:47:45.160Z,709.00
2022-11-08T00:48:15.459Z,713.00
2022-11-08T00:48:45.278Z,713.00
2022-11-08T00:49:15.289Z,708.00
2022-11-08T00:49:45.294Z,708.00
2022-11-08T00:50:15.305Z,707.00
2022-11-08T00:50:45.306Z,705.00
2022-11-08T00:51:15.320Z,706.00
2022-11-08T00:51:45.334Z,703.00
2022-11-08T00:52:15.339Z,704.00
2022-11-08T00:52:45.339Z,706.00
2022-11-08T00:53:15.338Z,706.00
2022-11-08T00:53:45.347Z,703.00
2022-11-08T00:54:15.353Z,694.00
2022-11-08T00:54:45.355Z,700.00
2022-11-08T00:55:15.360Z,701.00
2022-11-08T00:55:45.368Z,701.00
2022-11-08T00:56:15.375Z,707.00
2022-11-08T00:56:45.383Z,706.00
2022-11-08T00:57:15.395Z,705.00
2022-11-08T00:57:59.637Z,704.00
2022-11-08T00:58:15.937Z,700.00
2022-11-08T00:58:45.511Z,703.00
2022-11-08T00:59:15.542Z,703.00
2022-11-08T00:59:45.536Z,703.00
2022-11-08T01:00:15.537Z,704.00
2022-11-08T01:00:45.548Z,701.00
2022-11-08T01:01:15.603Z,706.00
2022-11-08T01:01:45.759Z,705.00
2022-11-08T01:02:15.667Z,699.00
2022-11-08T01:02:45.651Z,705.00
2022-11-08T01:03:15.656Z,705.00
2022-11-08T01:03:45.666Z,704.00
2022-11-08T01:04:15.672Z,700.00
2022-11-08T01:04:45.682Z,700.00
2022-11-08T01:05:15.692Z,702.00
2022-11-08T01:05:45.698Z,700.00
2022-11-08T01:06:15.713Z,700.00
2022-11-08T01:06:45.736Z,696.00
2022-11-08T01:07:15.747Z,694.00
2022-11-08T01:07:45.760Z,697.00
2022-11-08T01:08:16.201Z,694.00
2022-11-08T01:08:45.772Z,698.00
2022-11-08T01:09:15.771Z,700.00
2022-11-08T01:09:45.780Z,700.00
2022-11-08T01:10:15.781Z,702.00
2022-11-08T01:10:45.787Z,699.00
2022-11-08T01:11:15.801Z,703.00
2022-11-08T01:11:45.801Z,702.00
2022-11-08T01:12:15.804Z,699.00
2022-11-08T01:12:45.808Z,697.00
2022-11-08T01:13:15.813Z,697.00
2022-11-08T01:13:45.812Z,697.00
2022-11-08T01:14:15.808Z,694.00
2022-11-08T01:14:45.834Z,695.00
2022-11-08T01:15:15.881Z,692.00
2022-11-08T01:15:45.923Z,688.00
2022-11-08T01:16:54.984Z,696.00
2022-11-08T01:17:25.011Z,701.00
2022-11-08T01:17:55.061Z,703.00
2022-11-08T01:18:25.085Z,705.00
2022-11-08T01:18:55.140Z,703.00
2022-11-08T01:19:25.163Z,709.00
2022-11-08T01:19:55.192Z,692.00
2022-11-08T01:20:25.245Z,693.00
2022-11-08T01:20:55.276Z,694.00
2022-11-08T01:21:25.313Z,697.00
2022-11-08T01:21:55.356Z,695.00
2022-11-08T01:22:25.382Z,696.00
2022-11-08T01:22:55.415Z,694.00
2022-11-08T01:23:25.458Z,698.00
2022-11-08T01:23:55.485Z,698.00
2022-11-08T01:24:25.521Z,696.00
2022-11-08T01:24:55.564Z,694.00
2022-11-08T01:25:25.606Z,694.00
2022-11-08T01:25:55.642Z,692.00
2022-11-08T01:26:25.692Z,694.00
2022-11-08T01:26:55.779Z,695.00
2022-11-08T01:27:25.872Z,695.00
2022-11-08T01:27:55.950Z,694.00
2022-11-08T01:28:26.028Z,695.00
2022-11-08T01:28:56.108Z,694.00
2022-11-08T01:29:26.193Z,694.00
2022-11-08T01:29:56.315Z,692.00
2022-11-08T01:30:26.363Z,694.00
2022-11-08T01:30:56.436Z,695.00
2022-11-08T01:31:26.519Z,695.00
2022-11-08T01:31:56.604Z,693.00
2022-11-08T01:32:26.686Z,694.00
2022-11-08T01:32:56.770Z,691.00
2022-11-08T01:33:26.846Z,692.00
2022-11-08T01:33:56.931Z,691.00
2022-11-08T01:34:27.014Z,690.00
2022-11-08T01:34:57.096Z,690.00
2022-11-08T01:35:27.175Z,693.00
2022-11-08T01:35:57.259Z,690.00
2022-11-08T01:36:27.348Z,691.00
2022-11-08T01:36:57.429Z,693.00
2022-11-08T01:37:27.507Z,694.00
2022-11-08T01:37:57.581Z,692.00
2022-11-08T01:38:27.657Z,692.00
2022-11-08T01:38:57.745Z,691.00
2022-11-08T01:39:27.827Z,685.00
2022-11-08T01:39:57.907Z,688.00
2022-11-08T01:40:27.986Z,688.00
2022-11-08T01:40:58.073Z,689.00
2022-11-08T01:41:28.162Z,690.00
2022-11-08T01:41:58.239Z,691.00
2022-11-08T01:42:28.315Z,691.00
2022-11-08T01:42:58.392Z,688.00
2022-11-08T01:43:28.480Z,687.00
2022-11-08T01:43:58.570Z,687.00
2022-11-08T01:44:28.647Z,689.00
2022-11-08T01:44:58.745Z,687.00
2022-11-08T01:45:28.812Z,686.00
2022-11-08T01:45:58.899Z,689.00
2022-11-08T01:46:28.989Z,686.00
2022-11-08T01:46:59.058Z,684.00
2022-11-08T01:47:29.140Z,683.00
2022-11-08T01:47:59.233Z,683.00
2022-11-08T01:48:29.319Z,679.00
2022-11-08T01:48:59.393Z,679.00
2022-11-08T01:49:29.473Z,677.00
2022-11-08T01:49:59.554Z,675.00
2022-11-08T01:50:29.638Z,677.00
2022-11-08T01:50:59.725Z,679.00
2022-11-08T01:51:29.802Z,678.00
2022-11-08T01:51:59.885Z,682.00
2022-11-08T01:52:29.965Z,682.00
2022-11-08T01:53:00.050Z,678.00
2022-11-08T01:53:30.144Z,676.00
2022-11-08T01:54:00.233Z,673.00
2022-11-08T01:54:30.311Z,674.00
2022-11-08T01:55:00.395Z,672.00
2022-11-08T01:55:30.482Z,669.00
2022-11-08T01:56:00.563Z,667.00
2022-11-08T01:56:30.639Z,668.00
2022-11-08T01:57:00.721Z,672.00
2022-11-08T01:57:30.809Z,671.00
2022-11-08T01:58:00.897Z,672.00
2022-11-08T01:58:30.974Z,671.00
2022-11-08T01:59:01.054Z,673.00
2022-11-08T01:59:31.140Z,677.00
2022-11-08T02:00:01.237Z,676.00
2022-11-08T02:00:31.344Z,675.00
2022-11-08T02:01:01.436Z,677.00
2022-11-08T02:01:31.639Z,677.00
2022-11-08T02:02:01.542Z,675.00
2022-11-08T02:02:31.533Z,733.00
2022-11-08T02:03:01.533Z,678.00
2022-11-08T02:03:31.603Z,673.00
2022-11-08T02:04:01.689Z,679.00
2022-11-08T02:04:31.777Z,684.00
2022-11-08T02:05:01.858Z,684.00
2022-11-08T02:05:31.936Z,682.00
2022-11-08T02:06:02.018Z,684.00
2022-11-08T02:06:32.105Z,683.00
2022-11-08T02:07:02.196Z,684.00
2022-11-08T02:07:32.279Z,684.00
2022-11-08T02:08:02.365Z,681.00
2022-11-08T02:08:32.450Z,678.00
2022-11-08T02:09:02.549Z,682.00
2022-11-08T02:09:32.620Z,680.00
2022-11-08T02:10:02.708Z,679.00
2022-11-08T02:10:32.793Z,678.00
2022-11-08T02:11:02.873Z,671.00
2022-11-08T02:11:32.966Z,673.00
2022-11-08T02:12:03.038Z,672.00
2022-11-08T02:12:33.123Z,667.00
2022-11-08T02:13:05.258Z,670.00
2022-11-08T02:13:33.308Z,671.00
2022-11-08T02:14:03.387Z,670.00
2022-11-08T02:14:33.474Z,670.00
2022-11-08T02:15:03.556Z,673.00
2022-11-08T02:15:33.636Z,671.00
2022-11-08T02:16:03.761Z,671.00
2022-11-08T02:16:33.804Z,670.00
2022-11-08T02:17:03.837Z,670.00
2022-11-08T02:17:33.885Z,665.00
2022-11-08T02:18:03.933Z,665.00
2022-11-08T02:18:33.977Z,667.00
2022-11-08T02:19:04.014Z,668.00
2022-11-08T02:19:34.057Z,666.00
2022-11-08T02:20:04.098Z,668.00
2022-11-08T02:20:34.142Z,666.00
2022-11-08T02:21:04.195Z,667.00
2022-11-08T02:21:34.238Z,670.00
2022-11-08T02:22:04.280Z,673.00
2022-11-08T02:22:34.325Z,674.00
2022-11-08T02:23:04.362Z,673.00
2022-11-08T02:23:34.394Z,671.00
2022-11-08T02:24:04.441Z,670.00
2022-11-08T02:24:34.489Z,671.00
2022-11-08T02:25:04.527Z,668.00
2022-11-08T02:25:34.575Z,666.00
2022-11-08T02:26:04.629Z,666.00
2022-11-08T02:26:34.691Z,666.00
2022-11-08T02:27:04.786Z,668.00
2022-11-08T02:27:34.870Z,665.00
2022-11-08T02:28:04.951Z,665.00
2022-11-08T02:28:35.031Z,661.00
2022-11-08T02:29:05.118Z,665.00
2022-11-08T02:29:35.194Z,664.00
2022-11-08T02:30:05.283Z,663.00
2022-11-08T02:30:35.369Z,663.00
2022-11-08T02:31:05.462Z,663.00
2022-11-08T02:31:35.565Z,659.00
2022-11-08T02:32:05.620Z,658.00
2022-11-08T02:32:35.709Z,655.00
2022-11-08T02:33:05.796Z,662.00
2022-11-08T02:33:35.870Z,660.00
2022-11-08T02:34:05.948Z,658.00
2022-11-08T02:34:36.044Z,665.00
2022-11-08T02:35:06.133Z,662.00
2022-11-08T02:35:36.201Z,666.00
2022-11-08T02:36:06.285Z,661.00
2022-11-08T02:36:36.368Z,659.00
2022-11-08T02:37:06.454Z,658.00
2022-11-08T02:37:36.531Z,662.00
2022-11-08T02:38:06.612Z,660.00
2022-11-08T02:38:36.699Z,660.00
2022-11-08T02:39:06.790Z,659.00
2022-11-08T02:39:36.868Z,658.00
2022-11-08T02:40:06.945Z,661.00
2022-11-08T02:40:37.031Z,657.00
2022-11-08T02:41:07.124Z,660.00
2022-11-08T02:41:37.206Z,658.00
2022-11-08T02:42:07.292Z,659.00
2022-11-08T02:42:37.378Z,656.00
2022-11-08T02:43:07.458Z,656.00
2022-11-08T02:43:37.542Z,655.00
2022-11-08T02:44:07.620Z,659.00
2022-11-08T02:44:37.698Z,659.00
2022-11-08T02:45:07.780Z,660.00
2022-11-08T02:45:37.879Z,660.00
2022-11-08T02:46:07.961Z,660.00
2022-11-08T02:46:38.040Z,659.00
2022-11-08T02:47:08.144Z,660.00
2022-11-08T02:47:38.205Z,656.00
2022-11-08T02:48:08.292Z,659.00
2022-11-08T02:48:38.373Z,658.00
2022-11-08T02:49:08.456Z,657.00
2022-11-08T02:49:38.544Z,655.00
2022-11-08T02:50:08.628Z,653.00
2022-11-08T02:50:38.713Z,652.00
2022-11-08T02:51:08.804Z,654.00
2022-11-08T02:51:38.883Z,657.00
2022-11-08T02:52:08.960Z,649.00
2022-11-08T02:52:39.048Z,653.00
2022-11-08T02:53:09.128Z,653.00
2022-11-08T02:53:39.214Z,657.00
2022-11-08T02:54:09.296Z,657.00
2022-11-08T02:54:39.378Z,654.00
2022-11-08T02:55:09.462Z,654.00
2022-11-08T02:55:39.543Z,651.00
2022-11-08T02:56:09.635Z,655.00
2022-11-08T02:56:39.728Z,660.00
2022-11-08T02:57:09.815Z,658.00
2022-11-08T02:57:39.893Z,655.00
2022-11-08T02:58:09.971Z,658.00
2022-11-08T02:58:40.061Z,659.00
2022-11-08T02:59:10.138Z,657.00
2022-11-08T02:59:40.222Z,657.00
2022-11-08T03:00:10.301Z,656.00
2022-11-08T03:00:40.381Z,655.00
2022-11-08T03:01:10.512Z,657.00
2022-11-08T03:01:40.682Z,655.00
2022-11-08T03:02:10.719Z,655.00
2022-11-08T03:02:40.551Z,654.00
2022-11-08T03:03:10.608Z,655.00
2022-11-08T03:03:40.699Z,656.00
2022-11-08T03:04:10.783Z,652.00
2022-11-08T03:04:40.921Z,651.00
2022-11-08T03:05:10.883Z,650.00
2022-11-08T03:05:40.966Z,652.00
2022-11-08T03:06:11.058Z,652.00
2022-11-08T03:06:41.145Z,650.00
2022-11-08T03:07:11.238Z,649.00
2022-11-08T03:07:41.317Z,645.00
2022-11-08T03:08:11.401Z,663.00
2022-11-08T03:08:41.489Z,652.00
2022-11-08T03:09:11.568Z,650.00
2022-11-08T03:09:41.644Z,654.00
2022-11-08T03:10:11.737Z,655.00
2022-11-08T03:10:41.816Z,653.00
2022-11-08T03:11:11.904Z,653.00
2022-11-08T03:11:41.977Z,654.00
2022-11-08T03:12:12.055Z,653.00
2022-11-08T03:12:42.137Z,652.00
2022-11-08T03:13:12.225Z,652.00
2022-11-08T03:13:42.307Z,658.00
2022-11-08T03:14:12.386Z,650.00
2022-11-08T03:14:42.475Z,650.00
2022-11-08T03:15:12.558Z,650.00
2022-11-08T03:15:42.692Z,652.00
2022-11-08T03:16:12.655Z,652.00
2022-11-08T03:16:42.706Z,654.00
2022-11-08T03:17:12.749Z,654.00
2022-11-08T03:17:42.813Z,650.00
2022-11-08T03:18:12.824Z,649.00
2022-11-08T03:18:42.865Z,647.00
2022-11-08T03:19:12.903Z,645.00
2022-11-08T03:19:42.949Z,647.00
2022-11-08T03:20:12.989Z,649.00
2022-11-08T03:20:43.043Z,648.00
2022-11-08T03:21:13.094Z,650.00
2022-11-08T03:21:43.140Z,647.00
2022-11-08T03:22:13.171Z,650.00
2022-11-08T03:22:43.221Z,648.00
2022-11-08T03:23:13.259Z,643.00
2022-11-08T03:23:43.300Z,645.00
2022-11-08T03:24:13.338Z,644.00
2022-11-08T03:24:43.380Z,647.00
2022-11-08T03:25:13.538Z,646.00
2022-11-08T03:25:43.508Z,644.00
2022-11-08T03:26:13.541Z,648.00
2022-11-08T03:26:43.616Z,647.00
2022-11-08T03:27:13.695Z,649.00
2022-11-08T03:27:43.773Z,647.00
2022-11-08T03:28:13.849Z,651.00
2022-11-08T03:28:43.939Z,651.00
2022-11-08T03:29:14.024Z,648.00
2022-11-08T03:29:44.100Z,659.00
2022-11-08T03:30:14.178Z,648.00
2022-11-08T03:30:44.277Z,654.00
2022-11-08T03:31:14.367Z,650.00
2022-11-08T03:31:44.453Z,652.00
2022-11-08T03:32:14.527Z,650.00
2022-11-08T03:32:44.612Z,652.00
2022-11-08T03:33:14.711Z,651.00
2022-11-08T03:33:44.783Z,652.00
2022-11-08T03:34:14.871Z,650.00
2022-11-08T03:34:44.948Z,649.00
2022-11-08T03:35:15.030Z,641.00
2022-11-08T03:35:45.130Z,645.00
2022-11-08T03:36:15.212Z,639.00
2022-11-08T03:36:45.303Z,640.00
2022-11-08T03:37:15.407Z,638.00
2022-11-08T03:37:45.470Z,635.00
2022-11-08T03:38:16.041Z,638.00
2022-11-08T03:38:45.658Z,636.00
2022-11-08T03:39:15.733Z,635.00
2022-11-08T03:39:45.815Z,638.00
2022-11-08T03:40:15.900Z,639.00
2022-11-08T03:40:45.977Z,639.00
2022-11-08T03:41:16.055Z,638.00
2022-11-08T03:41:46.139Z,640.00
2022-11-08T03:42:16.224Z,637.00
2022-11-08T03:42:46.318Z,635.00
2022-11-08T03:43:16.383Z,635.00
2022-11-08T03:43:46.472Z,634.00
2022-11-08T03:44:16.546Z,632.00
2022-11-08T03:44:46.633Z,634.00
2022-11-08T03:45:16.710Z,636.00
2022-11-08T03:45:46.817Z,635.00
2022-11-08T03:46:16.784Z,635.00
2022-11-08T03:46:46.877Z,636.00
2022-11-08T03:47:16.953Z,637.00
2022-11-08T03:47:47.035Z,635.00
2022-11-08T03:48:17.496Z,632.00
2022-11-08T03:48:47.143Z,635.00
2022-11-08T03:49:17.228Z,633.00
2022-11-08T03:49:47.307Z,635.00
2022-11-08T03:50:17.395Z,638.00
2022-11-08T03:50:47.485Z,638.00
2022-11-08T03:51:17.571Z,636.00
2022-11-08T03:51:47.662Z,638.00
2022-11-08T03:52:17.739Z,632.00
2022-11-08T03:52:47.820Z,633.00
2022-11-08T03:53:17.911Z,629.00
2022-11-08T03:53:47.998Z,626.00
2022-11-08T03:54:18.082Z,627.00
2022-11-08T03:54:48.161Z,627.00
2022-11-08T03:55:18.243Z,630.00
2022-11-08T03:55:48.343Z,629.00
2022-11-08T03:56:18.427Z,631.00
2022-11-08T03:56:48.511Z,629.00
2022-11-08T03:57:18.588Z,629.00
2022-11-08T03:57:48.677Z,631.00
2022-11-08T03:58:18.969Z,628.00
2022-11-08T03:58:48.767Z,628.00
2022-11-08T03:59:18.849Z,624.00
2022-11-08T03:59:48.928Z,627.00
2022-11-08T04:00:19.015Z,621.00
2022-11-08T04:00:49.113Z,623.00
2022-11-08T04:01:19.248Z,625.00
2022-11-08T04:01:49.474Z,626.00
2022-11-08T04:02:19.443Z,628.00
2022-11-08T04:02:49.369Z,630.00
2022-11-08T04:03:19.432Z,628.00
2022-11-08T04:03:49.542Z,631.00
2022-11-08T04:04:19.592Z,628.00
2022-11-08T04:04:49.681Z,627.00
2022-11-08T04:05:19.760Z,629.00
2022-11-08T04:05:49.800Z,633.00
2022-11-08T04:06:19.881Z,630.00
2022-11-08T04:06:49.989Z,626.00
2022-11-08T04:07:20.073Z,625.00
2022-11-08T04:07:50.091Z,626.00
2022-11-08T04:08:20.484Z,626.00
2022-11-08T04:08:50.210Z,630.00
2022-11-08T04:09:21.599Z,629.00
2022-11-08T04:09:50.370Z,628.00
2022-11-08T04:10:20.453Z,630.00
2022-11-08T04:10:50.544Z,634.00
2022-11-08T04:11:20.629Z,623.00
2022-11-08T04:11:50.713Z,625.00
2022-11-08T04:12:20.803Z,628.00
2022-11-08T04:12:50.889Z,626.00
2022-11-08T04:13:20.975Z,623.00
2022-11-08T04:13:51.059Z,623.00
2022-11-08T04:14:21.149Z,621.00
2022-11-08T04:14:51.235Z,632.00
2022-11-08T04:15:21.308Z,626.00
2022-11-08T04:15:51.480Z,623.00
2022-11-08T04:16:21.477Z,620.00
2022-11-08T04:16:51.559Z,622.00
2022-11-08T04:17:21.592Z,621.00
2022-11-08T04:17:51.631Z,622.00
2022-11-08T04:18:22.140Z,626.00
2022-11-08T04:18:51.761Z,629.00
2022-11-08T04:19:21.818Z,627.00
2022-11-08T04:19:51.865Z,625.00
2022-11-08T04:20:21.893Z,628.00
2022-11-08T04:20:51.937Z,630.00
2022-11-08T04:21:22.196Z,626.00
2022-11-08T04:21:52.001Z,627.00
2022-11-08T04:22:22.045Z,626.00
2022-11-08T04:22:52.082Z,624.00
2022-11-08T04:23:22.127Z,623.00
2022-11-08T04:23:52.156Z,623.00
2022-11-08T04:24:22.226Z,621.00
2022-11-08T04:24:52.242Z,620.00
2022-11-08T04:25:22.283Z,623.00
2022-11-08T04:25:52.316Z,620.00
2022-11-08T04:26:22.357Z,622.00
2022-11-08T04:26:52.433Z,628.00
2022-11-08T04:27:22.521Z,621.00
2022-11-08T04:27:52.612Z,617.00
2022-11-08T04:28:22.688Z,617.00
2022-11-08T04:28:52.768Z,619.00
2022-11-08T04:29:22.851Z,621.00
2022-11-08T04:29:52.930Z,621.00
2022-11-08T04:30:23.004Z,621.00
2022-11-08T04:30:53.084Z,625.00
2022-11-08T04:31:23.167Z,616.00
2022-11-08T04:31:53.251Z,618.00
2022-11-08T04:32:23.344Z,620.00
2022-11-08T04:32:53.422Z,619.00
2022-11-08T04:33:23.504Z,621.00
2022-11-08T04:33:53.592Z,617.00
2022-11-08T04:34:23.690Z,617.00
2022-11-08T04:34:53.787Z,616.00
2022-11-08T04:35:23.849Z,618.00
2022-11-08T04:35:53.933Z,621.00
2022-11-08T04:36:24.017Z,622.00
2022-11-08T04:36:54.103Z,619.00
2022-11-08T04:37:24.180Z,619.00
2022-11-08T04:37:54.262Z,616.00
2022-11-08T04:38:24.350Z,618.00
2022-11-08T04:38:54.438Z,618.00
2022-11-08T04:39:24.525Z,615.00
2022-11-08T04:39:54.607Z,617.00
2022-11-08T04:40:24.688Z,617.00
2022-11-08T04:40:54.776Z,617.00
2022-11-08T04:41:24.869Z,619.00
2022-11-08T04:42:00.737Z,621.00
2022-11-08T04:42:25.006Z,624.00
2022-11-08T04:42:55.085Z,618.00
2022-11-08T04:43:25.175Z,619.00
2022-11-08T04:43:55.259Z,618.00
2022-11-08T04:44:25.339Z,619.00
2022-11-08T04:44:55.415Z,619.00
2022-11-08T04:45:25.506Z,616.00
2022-11-08T04:45:55.598Z,615.00
2022-11-08T04:46:25.676Z,617.00
2022-11-08T04:46:55.755Z,618.00
2022-11-08T04:47:25.840Z,619.00
2022-11-08T04:47:55.922Z,622.00
2022-11-08T04:48:26.001Z,620.00
2022-11-08T04:48:56.082Z,619.00
2022-11-08T04:49:26.157Z,617.00
2022-11-08T04:49:56.258Z,619.00
2022-11-08T04:50:26.321Z,621.00
2022-11-08T04:50:56.410Z,620.00
2022-11-08T04:51:26.490Z,622.00
2022-11-08T04:51:56.568Z,621.00
2022-11-08T04:52:26.656Z,619.00
2022-11-08T04:52:56.744Z,620.00
2022-11-08T04:53:26.834Z,622.00
2022-11-08T04:53:56.910Z,621.00
2022-11-08T04:54:27.013Z,620.00
2022-11-08T04:54:57.098Z,616.00
2022-11-08T04:55:27.188Z,613.00
2022-11-08T04:55:57.276Z,614.00
2022-11-08T04:56:27.353Z,615.00
2022-11-08T04:56:57.432Z,614.00
2022-11-08T04:57:27.519Z,615.00
2022-11-08T04:57:57.608Z,613.00
2022-11-08T04:58:27.685Z,612.00
2022-11-08T04:58:57.763Z,613.00
2022-11-08T04:59:27.848Z,615.00
2022-11-08T04:59:57.937Z,614.00
2022-11-08T05:00:28.010Z,613.00
2022-11-08T05:00:58.094Z,615.00
2022-11-08T05:01:28.260Z,615.00
2022-11-08T05:01:58.337Z,616.00
2022-11-08T05:02:28.423Z,613.00
2022-11-08T05:02:58.354Z,616.00
2022-11-08T05:03:28.302Z,615.00
2022-11-08T05:03:58.383Z,615.00
2022-11-08T05:04:28.465Z,613.00
2022-11-08T05:04:58.546Z,611.00
2022-11-08T05:05:28.717Z,611.00
2022-11-08T05:05:58.650Z,611.00
2022-11-08T05:06:28.729Z,606.00
2022-11-08T05:06:58.811Z,608.00
2022-11-08T05:07:28.895Z,609.00
2022-11-08T05:07:58.981Z,609.00
2022-11-08T05:08:29.062Z,608.00
2022-11-08T05:08:59.132Z,609.00
2022-11-08T05:09:29.215Z,611.00
2022-11-08T05:10:02.395Z,616.00
2022-11-08T05:10:29.342Z,615.00
2022-11-08T05:10:59.431Z,611.00
2022-11-08T05:11:29.505Z,611.00
2022-11-08T05:11:59.583Z,610.00
2022-11-08T05:12:29.671Z,606.00
2022-11-08T05:12:59.760Z,606.00
2022-11-08T05:13:29.841Z,607.00
2022-11-08T05:13:59.932Z,608.00
2022-11-08T05:14:30.029Z,605.00
2022-11-08T05:15:00.138Z,609.00
2022-11-08T05:15:30.202Z,607.00
2022-11-08T05:16:00.282Z,610.00
2022-11-08T05:16:30.354Z,608.00
2022-11-08T05:17:00.387Z,610.00
2022-11-08T05:17:30.425Z,607.00
2022-11-08T05:18:00.464Z,607.00
2022-11-08T05:18:30.488Z,605.00
2022-11-08T05:19:00.528Z,607.00
2022-11-08T05:19:30.561Z,606.00
2022-11-08T05:20:00.608Z,606.00
2022-11-08T05:20:30.652Z,604.00
2022-11-08T05:21:00.706Z,605.00
2022-11-08T05:21:30.727Z,603.00
2022-11-08T05:22:00.773Z,602.00
2022-11-08T05:22:30.808Z,632.00
2022-11-08T05:23:00.852Z,628.00
2022-11-08T05:23:30.887Z,628.00
2022-11-08T05:24:00.922Z,626.00
2022-11-08T05:24:30.974Z,627.00
2022-11-08T05:25:01.003Z,625.00
2022-11-08T05:25:31.053Z,618.00
2022-11-08T05:26:01.089Z,613.00
2022-11-08T05:26:31.132Z,603.00
2022-11-08T05:27:01.211Z,605.00
2022-11-08T05:27:31.287Z,605.00
2022-11-08T05:28:01.368Z,602.00
2022-11-08T05:28:31.457Z,604.00
2022-11-08T05:29:01.532Z,605.00
2022-11-08T05:29:31.605Z,604.00
2022-11-08T05:30:01.691Z,605.00
2022-11-08T05:30:31.777Z,608.00
2022-11-08T05:31:01.855Z,611.00
2022-11-08T05:31:31.933Z,612.00
2022-11-08T05:32:02.020Z,614.00
2022-11-08T05:32:32.104Z,617.00
2022-11-08T05:33:02.184Z,621.00
2022-11-08T05:33:32.265Z,618.00
2022-11-08T05:34:02.354Z,618.00
2022-11-08T05:34:32.442Z,619.00
2022-11-08T05:35:02.523Z,620.00
2022-11-08T05:35:32.605Z,626.00
2022-11-08T05:36:05.821Z,627.00
2022-11-08T05:36:32.776Z,622.00
2022-11-08T05:37:02.861Z,622.00
2022-11-08T05:37:32.936Z,621.00
2022-11-08T05:38:03.017Z,619.00
2022-11-08T05:38:33.102Z,621.00
2022-11-08T05:39:03.191Z,620.00
2022-11-08T05:39:33.272Z,621.00
2022-11-08T05:40:03.355Z,623.00
2022-11-08T05:40:33.711Z,622.00
2022-11-08T05:41:03.446Z,622.00
2022-11-08T05:41:33.532Z,622.00
2022-11-08T05:42:03.614Z,623.00
2022-11-08T05:42:33.697Z,625.00
2022-11-08T05:43:03.773Z,627.00
2022-11-08T05:43:33.859Z,626.00
2022-11-08T05:44:03.945Z,627.00
2022-11-08T05:44:34.027Z,627.00
2022-11-08T05:45:09.198Z,628.00
2022-11-08T05:45:34.165Z,630.00
2022-11-08T05:46:04.252Z,629.00
2022-11-08T05:46:34.338Z,631.00
2022-11-08T05:47:04.417Z,633.00
2022-11-08T05:47:34.494Z,634.00
2022-11-08T05:48:04.577Z,635.00
2022-11-08T05:48:34.681Z,639.00
2022-11-08T05:49:04.764Z,642.00
2022-11-08T05:49:34.845Z,646.00
2022-11-08T05:50:04.852Z,649.00
2022-11-08T05:50:34.940Z,652.00
2022-11-08T05:51:05.057Z,652.00
2022-11-08T05:51:35.044Z,652.00
2022-11-08T05:52:05.127Z,652.00
2022-11-08T05:52:35.215Z,652.00
2022-11-08T05:53:05.227Z,655.00
2022-11-08T05:53:35.315Z,674.00
2022-11-08T05:54:05.386Z,681.00
2022-11-08T05:54:35.471Z,680.00
2022-11-08T05:55:05.552Z,688.00
2022-11-08T05:55:35.640Z,702.00
2022-11-08T05:56:05.730Z,702.00
2022-11-08T05:56:35.817Z,702.00
2022-11-08T05:57:05.897Z,705.00
2022-11-08T05:57:35.979Z,705.00
2022-11-08T05:58:06.063Z,707.00
2022-11-08T05:58:36.154Z,708.00
2022-11-08T05:59:06.243Z,707.00
2022-11-08T05:59:36.320Z,708.00
2022-11-08T06:00:06.399Z,712.00
2022-11-08T06:00:36.486Z,712.00
2022-11-08T06:01:06.574Z,712.00
2022-11-08T06:01:36.706Z,714.00
2022-11-08T06:02:06.895Z,711.00
2022-11-08T06:02:36.879Z,711.00
2022-11-08T06:03:06.894Z,713.00
2022-11-08T06:03:37.087Z,713.00
2022-11-08T06:04:06.957Z,715.00
2022-11-08T06:04:37.038Z,719.00
2022-11-08T06:05:07.129Z,718.00
2022-11-08T06:05:37.216Z,718.00
2022-11-08T06:06:07.317Z,718.00
2022-11-08T06:06:37.397Z,719.00
2022-11-08T06:07:07.565Z,719.00
2022-11-08T06:07:37.509Z,721.00
2022-11-08T06:08:07.587Z,721.00
2022-11-08T06:08:37.697Z,723.00
2022-11-08T06:09:07.682Z,725.00
2022-11-08T06:09:37.767Z,726.00
2022-11-08T06:10:07.854Z,727.00
2022-11-08T06:10:37.861Z,728.00
2022-11-08T06:11:07.943Z,729.00
2022-11-08T06:11:38.025Z,729.00
2022-11-08T06:12:08.115Z,728.00
2022-11-08T06:12:38.248Z,729.00
2022-11-08T06:13:08.202Z,730.00
2022-11-08T06:13:38.284Z,730.00
2022-11-08T06:14:08.366Z,730.00
2022-11-08T06:14:38.380Z,728.00
2022-11-08T06:15:08.465Z,727.00
2022-11-08T06:15:38.543Z,728.00